createdAt,value
2018-10-09T00:00:02.023Z,11.23
2018-10-09T00:00:06.016Z,11.23
2018-10-09T00:00:10.109Z,11.22
2018-10-09T00:00:14.106Z,11.23
2018-10-09T00:00:18.304Z,11.23
2018-10-09T00:00:22.509Z,11.22
2018-10-09T00:00:26.819Z,11.22
2018-10-09T00:00:30.922Z,11.22
2018-10-09T00:00:35.328Z,11.22
2018-10-09T00:00:39.607Z,11.22
2018-10-09T00:00:43.909Z,11.23
2018-10-09T00:00:48.798Z,11.23
2018-10-09T00:00:53.774Z,11.22
2018-10-09T00:00:58.431Z,11.22
2018-10-09T00:01:02.739Z,11.22
2018-10-09T00:01:06.834Z,11.23
2018-10-09T00:01:11.084Z,11.23
2018-10-09T00:01:15.284Z,11.22
2018-10-09T00:01:19.274Z,11.22
2018-10-09T00:01:23.481Z,11.22
2018-10-09T00:01:27.794Z,11.22
2018-10-09T00:01:32.004Z,11.21
2018-10-09T00:01:36.103Z,11.22
2018-10-09T00:01:40.312Z,11.22
2018-10-09T00:01:44.298Z,11.21
2018-10-09T00:01:48.609Z,11.22
2018-10-09T00:01:52.806Z,11.22
2018-10-09T00:01:57.026Z,11.22
2018-10-09T00:02:01.118Z,11.22
2018-10-09T00:02:05.218Z,11.22
2018-10-09T00:02:09.427Z,11.21
2018-10-09T00:02:13.624Z,11.22
2018-10-09T00:02:17.928Z,11.22
2018-10-09T00:02:22.249Z,11.22
2018-10-09T00:02:26.451Z,11.21
2018-10-09T00:02:30.439Z,11.22
2018-10-09T00:02:34.535Z,11.21
2018-10-09T00:02:38.738Z,11.22
2018-10-09T00:02:42.949Z,11.22
2018-10-09T00:02:47.046Z,11.21
2018-10-09T00:02:51.246Z,11.22
2018-10-09T00:02:55.559Z,11.21
2018-10-09T00:02:59.765Z,11.21
2018-10-09T00:03:04.008Z,11.22
2018-10-09T00:03:08.211Z,11.21
2018-10-09T00:03:12.208Z,11.21
2018-10-09T00:03:16.528Z,11.22
2018-10-09T00:03:20.729Z,11.21
2018-10-09T00:03:24.939Z,11.21
2018-10-09T00:03:29.042Z,11.21
2018-10-09T00:03:33.251Z,11.21
2018-10-09T00:03:37.495Z,11.21
2018-10-09T00:03:41.702Z,11.2
2018-10-09T00:03:46.006Z,11.21
2018-10-09T00:03:50.205Z,11.2
2018-10-09T00:03:54.402Z,11.21
2018-10-09T00:03:58.492Z,11.21
2018-10-09T00:04:02.584Z,11.2
2018-10-09T00:04:06.355Z,11.2
2018-10-09T00:04:10.444Z,11.2
2018-10-09T00:04:14.642Z,11.2
2018-10-09T00:04:18.733Z,11.19
2018-10-09T00:04:22.829Z,11.2
2018-10-09T00:04:26.830Z,11.2
2018-10-09T00:04:31.134Z,11.19
2018-10-09T00:04:35.229Z,11.2
2018-10-09T00:04:39.327Z,11.19
2018-10-09T00:04:43.635Z,11.2
2018-10-09T00:04:47.840Z,11.2
2018-10-09T00:04:51.985Z,11.19
2018-10-09T00:04:55.976Z,11.2
2018-10-09T00:05:00.183Z,11.2
2018-10-09T00:05:04.283Z,11.2
2018-10-09T00:05:08.384Z,11.2
2018-10-09T00:05:12.689Z,11.2
2018-10-09T00:05:17.008Z,11.2
2018-10-09T00:05:20.993Z,11.2
2018-10-09T00:05:25.200Z,11.19
2018-10-09T00:05:29.400Z,11.2
2018-10-09T00:05:33.709Z,11.2
2018-10-09T00:05:37.802Z,11.2
2018-10-09T00:05:42.113Z,11.19
2018-10-09T00:05:45.993Z,11.19
2018-10-09T00:05:49.982Z,11.19
2018-10-09T00:05:54.183Z,11.19
2018-10-09T00:05:58.175Z,11.19
2018-10-09T00:06:02.479Z,11.18
2018-10-09T00:06:06.798Z,11.18
2018-10-09T00:06:11.000Z,11.19
2018-10-09T00:06:15.200Z,11.2
2018-10-09T00:06:19.529Z,11.2
2018-10-09T00:06:23.734Z,11.2
2018-10-09T00:06:27.832Z,11.2
2018-10-09T00:06:32.141Z,11.2
2018-10-09T00:06:36.348Z,11.21
2018-10-09T00:06:40.655Z,11.2
2018-10-09T00:06:44.694Z,11.21
2018-10-09T00:06:48.999Z,11.21
2018-10-09T00:06:53.203Z,11.22
2018-10-09T00:06:57.300Z,11.21
2018-10-09T00:07:01.287Z,11.21
2018-10-09T00:07:05.403Z,11.21
2018-10-09T00:07:09.603Z,11.21
2018-10-09T00:07:13.585Z,11.21
2018-10-09T00:07:17.901Z,11.22
2018-10-09T00:07:21.785Z,11.21
2018-10-09T00:07:26.098Z,11.22
2018-10-09T00:07:30.190Z,11.23
2018-10-09T00:07:34.391Z,11.22
2018-10-09T00:07:38.618Z,11.22
2018-10-09T00:07:42.929Z,11.22
2018-10-09T00:07:47.136Z,11.22
2018-10-09T00:07:51.433Z,11.22
2018-10-09T00:07:55.740Z,11.22
2018-10-09T00:07:59.936Z,11.23
2018-10-09T00:08:04.072Z,11.23
2018-10-09T00:08:08.283Z,11.23
2018-10-09T00:08:12.389Z,11.23
2018-10-09T00:08:16.699Z,11.23
2018-10-09T00:08:21.009Z,11.24
2018-10-09T00:08:25.217Z,11.23
2018-10-09T00:08:29.324Z,11.24
2018-10-09T00:08:33.632Z,11.25
2018-10-09T00:08:37.730Z,11.24
2018-10-09T00:08:41.821Z,11.23
2018-10-09T00:08:46.129Z,11.23
2018-10-09T00:08:50.326Z,11.25
2018-10-09T00:08:54.424Z,11.24
2018-10-09T00:08:58.741Z,11.24
2018-10-09T00:09:02.941Z,11.24
2018-10-09T00:09:07.145Z,11.24
2018-10-09T00:09:11.347Z,11.24
2018-10-09T00:09:15.553Z,11.24
2018-10-09T00:09:19.863Z,11.24
2018-10-09T00:09:24.059Z,11.24
2018-10-09T00:09:27.944Z,11.25
2018-10-09T00:09:32.042Z,11.24
2018-10-09T00:09:36.364Z,11.25
2018-10-09T00:09:40.570Z,11.25
2018-10-09T00:09:44.878Z,11.25
2018-10-09T00:09:48.979Z,11.25
2018-10-09T00:09:53.183Z,11.26
2018-10-09T00:09:57.271Z,11.25
2018-10-09T00:10:01.485Z,11.26
2018-10-09T00:10:05.361Z,11.25
2018-10-09T00:10:09.345Z,11.26
2018-10-09T00:10:13.445Z,11.26
2018-10-09T00:10:17.537Z,11.26
2018-10-09T00:10:21.729Z,11.26
2018-10-09T00:10:25.928Z,11.26
2018-10-09T00:10:30.025Z,11.26
2018-10-09T00:10:34.224Z,11.26
2018-10-09T00:10:38.532Z,11.26
2018-10-09T00:10:42.622Z,11.25
2018-10-09T00:10:46.505Z,11.25
2018-10-09T00:10:50.600Z,11.26
2018-10-09T00:10:54.797Z,11.26
2018-10-09T00:10:58.889Z,11.27
2018-10-09T00:11:02.983Z,11.27
2018-10-09T00:11:07.082Z,11.27
2018-10-09T00:11:11.392Z,11.28
2018-10-09T00:11:15.596Z,11.28
2018-10-09T00:11:19.800Z,11.28
2018-10-09T00:11:23.997Z,11.27
2018-10-09T00:11:27.994Z,11.27
2018-10-09T00:11:32.189Z,11.27
2018-10-09T00:11:36.279Z,11.27
2018-10-09T00:11:40.371Z,11.27
2018-10-09T00:11:44.567Z,11.28
2018-10-09T00:11:48.558Z,11.28
2018-10-09T00:11:52.755Z,11.27
2018-10-09T00:11:56.959Z,11.28
2018-10-09T00:12:01.058Z,11.28
2018-10-09T00:12:05.042Z,11.28
2018-10-09T00:12:09.250Z,11.29
2018-10-09T00:12:13.449Z,11.28
2018-10-09T00:12:17.548Z,11.29
2018-10-09T00:12:21.638Z,11.28
2018-10-09T00:12:25.946Z,11.28
2018-10-09T00:12:30.142Z,11.29
2018-10-09T00:12:34.122Z,11.29
2018-10-09T00:12:38.328Z,11.29
2018-10-09T00:12:42.644Z,11.29
2018-10-09T00:12:46.735Z,11.29
2018-10-09T00:12:50.938Z,11.3
2018-10-09T00:12:55.135Z,11.3
2018-10-09T00:12:59.330Z,11.29
2018-10-09T00:13:03.432Z,11.3
2018-10-09T00:13:07.533Z,11.3
2018-10-09T00:13:11.737Z,11.3
2018-10-09T00:13:15.940Z,11.31
2018-10-09T00:13:20.035Z,11.31
2018-10-09T00:13:24.232Z,11.31
2018-10-09T00:13:28.216Z,11.31
2018-10-09T00:13:32.412Z,11.31
2018-10-09T00:13:36.289Z,11.31
2018-10-09T00:13:40.486Z,11.31
2018-10-09T00:13:44.483Z,11.32
2018-10-09T00:13:48.687Z,11.32
2018-10-09T00:13:52.783Z,11.32
2018-10-09T00:13:56.985Z,11.31
2018-10-09T00:14:01.081Z,11.32
2018-10-09T00:14:05.070Z,11.32
2018-10-09T00:14:09.065Z,11.32
2018-10-09T00:14:13.378Z,11.33
2018-10-09T00:14:17.585Z,11.32
2018-10-09T00:14:21.792Z,11.33
2018-10-09T00:14:25.881Z,11.32
2018-10-09T00:14:29.975Z,11.34
2018-10-09T00:14:34.176Z,11.33
2018-10-09T00:14:38.277Z,11.33
2018-10-09T00:14:42.479Z,11.34
2018-10-09T00:14:46.683Z,11.34
2018-10-09T00:14:50.878Z,11.34
2018-10-09T00:14:55.189Z,11.34
2018-10-09T00:14:59.382Z,11.34
2018-10-09T00:15:03.270Z,11.35
2018-10-09T00:15:07.481Z,11.35
2018-10-09T00:15:11.693Z,11.34
2018-10-09T00:15:15.787Z,11.35
2018-10-09T00:15:19.990Z,11.35
2018-10-09T00:15:24.089Z,11.35
2018-10-09T00:15:28.401Z,11.34
2018-10-09T00:15:32.603Z,11.35
2018-10-09T00:15:36.801Z,11.36
2018-10-09T00:15:40.899Z,11.35
2018-10-09T00:15:45.096Z,11.36
2018-10-09T00:15:49.296Z,11.36
2018-10-09T00:15:53.504Z,11.36
2018-10-09T00:15:57.496Z,11.36
2018-10-09T00:16:01.489Z,11.36
2018-10-09T00:16:05.809Z,11.37
2018-10-09T00:16:09.797Z,11.37
2018-10-09T00:16:14.004Z,11.37
2018-10-09T00:16:18.314Z,11.37
2018-10-09T00:16:22.510Z,11.38
2018-10-09T00:16:26.712Z,11.38
2018-10-09T00:16:30.926Z,11.37
2018-10-09T00:16:35.118Z,11.37
2018-10-09T00:16:39.325Z,11.39
2018-10-09T00:16:43.521Z,11.38
2018-10-09T00:16:47.615Z,11.39
2018-10-09T00:16:51.495Z,11.39
2018-10-09T00:16:55.685Z,11.39
2018-10-09T00:16:59.887Z,11.39
2018-10-09T00:17:03.876Z,11.39
2018-10-09T00:17:08.071Z,11.4
2018-10-09T00:17:12.268Z,11.4
2018-10-09T00:17:16.483Z,11.4
2018-10-09T00:17:20.686Z,11.4
2018-10-09T00:17:24.783Z,11.41
2018-10-09T00:17:28.878Z,11.4
2018-10-09T00:17:33.184Z,11.41
2018-10-09T00:17:37.384Z,11.4
2018-10-09T00:17:41.687Z,11.41
2018-10-09T00:17:45.672Z,11.41
2018-10-09T00:17:49.763Z,11.41
2018-10-09T00:17:54.076Z,11.41
2018-10-09T00:17:58.286Z,11.42
2018-10-09T00:18:02.276Z,11.42
2018-10-09T00:18:06.156Z,11.41
2018-10-09T00:18:10.357Z,11.43
2018-10-09T00:18:14.560Z,11.42
2018-10-09T00:18:18.756Z,11.42
2018-10-09T00:18:22.848Z,11.43
2018-10-09T00:18:27.046Z,11.43
2018-10-09T00:18:31.036Z,11.43
2018-10-09T00:18:35.130Z,11.43
2018-10-09T00:18:39.435Z,11.44
2018-10-09T00:18:43.741Z,11.44
2018-10-09T00:18:47.836Z,11.45
2018-10-09T00:18:52.034Z,11.45
2018-10-09T00:18:56.128Z,11.45
2018-10-09T00:19:00.474Z,11.45
2018-10-09T00:19:04.625Z,11.46
2018-10-09T00:19:08.833Z,11.46
2018-10-09T00:19:13.043Z,11.46
2018-10-09T00:19:17.348Z,11.46
2018-10-09T00:19:21.594Z,11.47
2018-10-09T00:19:25.805Z,11.47
2018-10-09T00:19:29.824Z,11.47
2018-10-09T00:19:34.134Z,11.47
2018-10-09T00:19:38.225Z,11.46
2018-10-09T00:19:42.321Z,11.46
2018-10-09T00:19:46.426Z,11.47
2018-10-09T00:19:50.522Z,11.47
2018-10-09T00:19:54.729Z,11.47
2018-10-09T00:19:58.929Z,11.48
2018-10-09T00:20:03.136Z,11.47
2018-10-09T00:20:07.240Z,11.47
2018-10-09T00:20:11.437Z,11.48
2018-10-09T00:20:15.531Z,11.47
2018-10-09T00:20:19.620Z,11.47
2018-10-09T00:20:23.818Z,11.47
2018-10-09T00:20:28.023Z,11.47
2018-10-09T00:20:32.228Z,11.48
2018-10-09T00:20:36.548Z,11.47
2018-10-09T00:20:40.745Z,11.47
2018-10-09T00:20:45.055Z,11.47
2018-10-09T00:20:49.255Z,11.47
2018-10-09T00:20:53.450Z,11.47
2018-10-09T00:20:57.659Z,11.48
2018-10-09T00:21:01.901Z,11.47
2018-10-09T00:21:05.998Z,11.47
2018-10-09T00:21:10.309Z,11.47
2018-10-09T00:21:14.400Z,11.46
2018-10-09T00:21:18.393Z,11.47
2018-10-09T00:21:22.594Z,11.47
2018-10-09T00:21:26.897Z,11.46
2018-10-09T00:21:31.099Z,11.47
2018-10-09T00:21:35.413Z,11.46
2018-10-09T00:21:39.721Z,11.46
2018-10-09T00:21:43.822Z,11.46
2018-10-09T00:21:48.137Z,11.46
2018-10-09T00:21:52.230Z,11.47
2018-10-09T00:21:56.427Z,11.46
2018-10-09T00:22:00.517Z,11.47
2018-10-09T00:22:04.618Z,11.47
2018-10-09T00:22:08.821Z,11.46
2018-10-09T00:22:13.170Z,11.46
2018-10-09T00:22:17.366Z,11.46
2018-10-09T00:22:21.566Z,11.46
2018-10-09T00:22:25.868Z,11.46
2018-10-09T00:22:29.853Z,11.46
2018-10-09T00:22:34.157Z,11.46
2018-10-09T00:22:38.470Z,11.45
2018-10-09T00:22:42.463Z,11.46
2018-10-09T00:22:46.662Z,11.46
2018-10-09T00:22:50.866Z,11.46
2018-10-09T00:22:54.963Z,11.46
2018-10-09T00:22:59.265Z,11.45
2018-10-09T00:23:03.368Z,11.45
2018-10-09T00:23:07.580Z,11.45
2018-10-09T00:23:11.900Z,11.45
2018-10-09T00:23:16.101Z,11.45
2018-10-09T00:23:20.303Z,11.45
2018-10-09T00:23:24.610Z,11.44
2018-10-09T00:23:28.810Z,11.45
2018-10-09T00:23:32.903Z,11.44
2018-10-09T00:23:37.105Z,11.43
2018-10-09T00:23:41.306Z,11.43
2018-10-09T00:23:45.618Z,11.44
2018-10-09T00:23:49.826Z,11.43
2018-10-09T00:23:54.043Z,11.44
2018-10-09T00:23:58.247Z,11.44
2018-10-09T00:24:02.447Z,11.44
2018-10-09T00:24:06.660Z,11.43
2018-10-09T00:24:10.973Z,11.43
2018-10-09T00:24:15.276Z,11.43
2018-10-09T00:24:19.472Z,11.43
2018-10-09T00:24:23.670Z,11.43
2018-10-09T00:24:27.884Z,11.42
2018-10-09T00:24:32.091Z,11.43
2018-10-09T00:24:36.405Z,11.43
2018-10-09T00:24:40.708Z,11.43
2018-10-09T00:24:45.020Z,11.43
2018-10-09T00:24:49.341Z,11.43
2018-10-09T00:24:53.544Z,11.43
2018-10-09T00:24:57.748Z,11.43
2018-10-09T00:25:02.017Z,11.41
2018-10-09T00:25:06.400Z,11.42
2018-10-09T00:25:10.544Z,11.41
2018-10-09T00:25:14.759Z,11.43
2018-10-09T00:25:19.071Z,11.42
2018-10-09T00:25:23.449Z,11.42
2018-10-09T00:25:27.756Z,11.42
2018-10-09T00:25:31.970Z,11.41
2018-10-09T00:25:36.279Z,11.41
2018-10-09T00:25:40.373Z,11.41
2018-10-09T00:25:44.577Z,11.42
2018-10-09T00:25:48.776Z,11.41
2018-10-09T00:25:53.134Z,11.42
2018-10-09T00:25:57.665Z,11.41
2018-10-09T00:26:02.474Z,11.4
2018-10-09T00:26:07.185Z,11.41
2018-10-09T00:26:11.773Z,11.41
2018-10-09T00:26:16.162Z,11.41
2018-10-09T00:26:20.382Z,11.41
2018-10-09T00:26:24.686Z,11.41
2018-10-09T00:26:28.890Z,11.4
2018-10-09T00:26:33.207Z,11.4
2018-10-09T00:26:37.424Z,11.39
2018-10-09T00:26:41.627Z,11.4
2018-10-09T00:26:45.934Z,11.39
2018-10-09T00:26:50.035Z,11.4
2018-10-09T00:26:54.233Z,11.39
2018-10-09T00:26:58.550Z,11.39
2018-10-09T00:27:02.864Z,11.39
2018-10-09T00:27:06.962Z,11.38
2018-10-09T00:27:11.193Z,11.38
2018-10-09T00:27:15.500Z,11.38
2018-10-09T00:27:19.706Z,11.39
2018-10-09T00:27:23.799Z,11.39
2018-10-09T00:27:27.999Z,11.39
2018-10-09T00:27:32.211Z,11.38
2018-10-09T00:27:36.578Z,11.39
2018-10-09T00:27:40.784Z,11.38
2018-10-09T00:27:45.098Z,11.38
2018-10-09T00:27:49.415Z,11.38
2018-10-09T00:27:53.719Z,11.38
2018-10-09T00:27:57.915Z,11.38
2018-10-09T00:28:02.116Z,11.38
2018-10-09T00:28:06.213Z,11.37
2018-10-09T00:28:10.202Z,11.37
2018-10-09T00:28:14.298Z,11.37
2018-10-09T00:28:18.508Z,11.37
2018-10-09T00:28:22.713Z,11.36
2018-10-09T00:28:26.932Z,11.36
2018-10-09T00:28:31.144Z,11.37
2018-10-09T00:28:35.449Z,11.36
2018-10-09T00:28:39.658Z,11.36
2018-10-09T00:28:43.986Z,11.36
2018-10-09T00:28:48.192Z,11.36
2018-10-09T00:28:52.293Z,11.36
2018-10-09T00:28:56.497Z,11.36
2018-10-09T00:29:00.700Z,11.35
2018-10-09T00:29:04.797Z,11.36
2018-10-09T00:29:09.000Z,11.35
2018-10-09T00:29:13.267Z,11.35
2018-10-09T00:29:17.473Z,11.34
2018-10-09T00:29:21.719Z,11.35
2018-10-09T00:29:26.032Z,11.34
2018-10-09T00:29:30.239Z,11.34
2018-10-09T00:29:34.549Z,11.34
2018-10-09T00:29:38.757Z,11.34
2018-10-09T00:29:43.070Z,11.34
2018-10-09T00:29:47.166Z,11.33
2018-10-09T00:29:51.481Z,11.33
2018-10-09T00:29:55.804Z,11.33
2018-10-09T00:29:59.905Z,11.33
2018-10-09T00:30:03.682Z,11.33
2018-10-09T00:30:07.784Z,11.33
2018-10-09T00:30:11.989Z,11.32
2018-10-09T00:30:16.194Z,11.32
2018-10-09T00:30:20.180Z,11.32
2018-10-09T00:30:24.484Z,11.31
2018-10-09T00:30:28.684Z,11.31
2018-10-09T00:30:33.000Z,11.31
2018-10-09T00:30:37.213Z,11.31
2018-10-09T00:30:41.412Z,11.3
2018-10-09T00:30:45.514Z,11.3
2018-10-09T00:30:49.820Z,11.3
2018-10-09T00:30:54.135Z,11.3
2018-10-09T00:30:58.445Z,11.3
2018-10-09T00:31:02.766Z,11.3
2018-10-09T00:31:07.081Z,11.29
2018-10-09T00:31:11.174Z,11.29
2018-10-09T00:31:15.479Z,11.3
2018-10-09T00:31:19.680Z,11.28
2018-10-09T00:31:23.880Z,11.28
2018-10-09T00:31:28.189Z,11.28
2018-10-09T00:31:32.175Z,11.28
2018-10-09T00:31:36.383Z,11.27
2018-10-09T00:31:40.600Z,11.28
2018-10-09T00:31:44.810Z,11.27
2018-10-09T00:31:49.014Z,11.27
2018-10-09T00:31:53.321Z,11.27
2018-10-09T00:31:57.416Z,11.27
2018-10-09T00:32:01.727Z,11.26
2018-10-09T00:32:05.938Z,11.27
2018-10-09T00:32:10.140Z,11.27
2018-10-09T00:32:14.449Z,11.26
2018-10-09T00:32:18.673Z,11.26
2018-10-09T00:32:22.774Z,11.26
2018-10-09T00:32:27.026Z,11.26
2018-10-09T00:32:31.225Z,11.26
2018-10-09T00:32:35.431Z,11.26
2018-10-09T00:32:39.635Z,11.26
2018-10-09T00:32:43.732Z,11.26
2018-10-09T00:32:47.832Z,11.26
2018-10-09T00:32:52.051Z,11.26
2018-10-09T00:32:56.149Z,11.26
2018-10-09T00:33:00.357Z,11.26
2018-10-09T00:33:04.390Z,11.26
2018-10-09T00:33:08.714Z,11.25
2018-10-09T00:33:13.017Z,11.26
2018-10-09T00:33:17.115Z,11.26
2018-10-09T00:33:21.311Z,11.25
2018-10-09T00:33:25.402Z,11.25
2018-10-09T00:33:29.397Z,11.25
2018-10-09T00:33:33.703Z,11.24
2018-10-09T00:33:37.905Z,11.25
2018-10-09T00:33:42.101Z,11.24
2018-10-09T00:33:46.404Z,11.24
2018-10-09T00:33:50.611Z,11.24
2018-10-09T00:33:54.875Z,11.24
2018-10-09T00:33:59.180Z,11.24
2018-10-09T00:34:03.382Z,11.24
2018-10-09T00:34:07.485Z,11.24
2018-10-09T00:34:11.692Z,11.24
2018-10-09T00:34:16.000Z,11.23
2018-10-09T00:34:20.303Z,11.23
2018-10-09T00:34:24.615Z,11.23
2018-10-09T00:34:28.610Z,11.23
2018-10-09T00:34:32.815Z,11.24
2018-10-09T00:34:36.926Z,11.23
2018-10-09T00:34:41.231Z,11.23
2018-10-09T00:34:45.446Z,11.23
2018-10-09T00:34:49.543Z,11.23
2018-10-09T00:34:53.847Z,11.22
2018-10-09T00:34:58.161Z,11.22
2018-10-09T00:35:02.472Z,11.22
2018-10-09T00:35:06.568Z,11.22
2018-10-09T00:35:10.881Z,11.22
2018-10-09T00:35:15.185Z,11.22
2018-10-09T00:35:19.497Z,11.22
2018-10-09T00:35:23.808Z,11.22
2018-10-09T00:35:28.011Z,11.22
2018-10-09T00:35:32.222Z,11.21
2018-10-09T00:35:36.225Z,11.21
2018-10-09T00:35:40.531Z,11.22
2018-10-09T00:35:44.842Z,11.21
2018-10-09T00:35:49.155Z,11.21
2018-10-09T00:35:53.256Z,11.21
2018-10-09T00:35:57.349Z,11.21
2018-10-09T00:36:01.343Z,11.2
2018-10-09T00:36:05.445Z,11.2
2018-10-09T00:36:09.756Z,11.2
2018-10-09T00:36:13.958Z,11.2
2018-10-09T00:36:18.263Z,11.19
2018-10-09T00:36:22.461Z,11.19
2018-10-09T00:36:26.448Z,11.19
2018-10-09T00:36:30.546Z,11.18
2018-10-09T00:36:34.879Z,11.18
2018-10-09T00:36:39.193Z,11.18
2018-10-09T00:36:43.501Z,11.18
2018-10-09T00:36:47.806Z,11.18
2018-10-09T00:36:51.902Z,11.19
2018-10-09T00:36:56.223Z,11.18
2018-10-09T00:37:00.431Z,11.18
2018-10-09T00:37:04.526Z,11.17
2018-10-09T00:37:08.726Z,11.18
2018-10-09T00:37:13.031Z,11.17
2018-10-09T00:37:17.122Z,11.18
2018-10-09T00:37:21.440Z,11.17
2018-10-09T00:37:25.659Z,11.17
2018-10-09T00:37:29.865Z,11.16
2018-10-09T00:37:34.115Z,11.17
2018-10-09T00:37:38.321Z,11.16
2018-10-09T00:37:42.421Z,11.17
2018-10-09T00:37:46.624Z,11.16
2018-10-09T00:37:50.720Z,11.16
2018-10-09T00:37:55.023Z,11.17
2018-10-09T00:37:59.222Z,11.17
2018-10-09T00:38:03.320Z,11.16
2018-10-09T00:38:07.635Z,11.16
2018-10-09T00:38:11.942Z,11.17
2018-10-09T00:38:16.152Z,11.16
2018-10-09T00:38:20.459Z,11.16
2018-10-09T00:38:24.764Z,11.16
2018-10-09T00:38:28.861Z,11.15
2018-10-09T00:38:33.063Z,11.15
2018-10-09T00:38:37.169Z,11.15
2018-10-09T00:38:41.365Z,11.14
2018-10-09T00:38:45.675Z,11.15
2018-10-09T00:38:49.891Z,11.15
2018-10-09T00:38:54.197Z,11.14
2018-10-09T00:38:58.394Z,11.15
2018-10-09T00:39:02.740Z,11.14
2018-10-09T00:39:06.835Z,11.15
2018-10-09T00:39:11.148Z,11.14
2018-10-09T00:39:15.448Z,11.14
2018-10-09T00:39:19.645Z,11.14
2018-10-09T00:39:23.952Z,11.14
2018-10-09T00:39:27.946Z,11.14
2018-10-09T00:39:31.951Z,11.14
2018-10-09T00:39:36.051Z,11.14
2018-10-09T00:39:40.248Z,11.13
2018-10-09T00:39:44.486Z,11.14
2018-10-09T00:39:48.480Z,11.13
2018-10-09T00:39:52.568Z,11.12
2018-10-09T00:39:56.775Z,11.12
2018-10-09T00:40:00.972Z,11.12
2018-10-09T00:40:05.178Z,11.12
2018-10-09T00:40:09.394Z,11.12
2018-10-09T00:40:13.598Z,11.12
2018-10-09T00:40:17.914Z,11.12
2018-10-09T00:40:22.009Z,11.11
2018-10-09T00:40:26.209Z,11.11
2018-10-09T00:40:30.304Z,11.12
2018-10-09T00:40:34.391Z,11.11
2018-10-09T00:40:38.697Z,11.11
2018-10-09T00:40:42.897Z,11.11
2018-10-09T00:40:47.095Z,11.11
2018-10-09T00:40:51.401Z,11.11
2018-10-09T00:40:55.706Z,11.11
2018-10-09T00:40:59.793Z,11.1
2018-10-09T00:41:03.823Z,11.11
2018-10-09T00:41:08.014Z,11.09
2018-10-09T00:41:12.010Z,11.1
2018-10-09T00:41:16.215Z,11.1
2018-10-09T00:41:20.519Z,11.1
2018-10-09T00:41:24.730Z,11.09
2018-10-09T00:41:28.816Z,11.09
2018-10-09T00:41:33.133Z,11.09
2018-10-09T00:41:37.333Z,11.09
2018-10-09T00:41:41.553Z,11.09
2018-10-09T00:41:45.857Z,11.08
2018-10-09T00:41:50.062Z,11.09
2018-10-09T00:41:54.372Z,11.09
2018-10-09T00:41:58.686Z,11.08
2018-10-09T00:42:02.779Z,11.08
2018-10-09T00:42:06.878Z,11.08
2018-10-09T00:42:10.975Z,11.08
2018-10-09T00:42:15.284Z,11.08
2018-10-09T00:42:19.496Z,11.08
2018-10-09T00:42:23.804Z,11.08
2018-10-09T00:42:27.900Z,11.09
2018-10-09T00:42:31.994Z,11.08
2018-10-09T00:42:35.988Z,11.08
2018-10-09T00:42:40.291Z,11.09
2018-10-09T00:42:44.495Z,11.06
2018-10-09T00:42:48.591Z,11.07
2018-10-09T00:42:52.792Z,11.07
2018-10-09T00:42:56.999Z,11.08
2018-10-09T00:43:01.208Z,11.07
2018-10-09T00:43:05.194Z,11.07
2018-10-09T00:43:09.393Z,11.07
2018-10-09T00:43:13.605Z,11.07
2018-10-09T00:43:17.908Z,11.07
2018-10-09T00:43:22.108Z,11.07
2018-10-09T00:43:26.315Z,11.06
2018-10-09T00:43:30.618Z,11.06
2018-10-09T00:43:34.717Z,11.05
2018-10-09T00:43:39.025Z,11.06
2018-10-09T00:43:43.222Z,11.06
2018-10-09T00:43:47.421Z,11.06
2018-10-09T00:43:51.517Z,11.06
2018-10-09T00:43:55.618Z,11.05
2018-10-09T00:43:59.925Z,11.05
2018-10-09T00:44:04.134Z,11.05
2018-10-09T00:44:08.228Z,11.06
2018-10-09T00:44:12.429Z,11.05
2018-10-09T00:44:16.735Z,11.05
2018-10-09T00:44:20.827Z,11.05
2018-10-09T00:44:25.028Z,11.05
2018-10-09T00:44:29.129Z,11.05
2018-10-09T00:44:33.490Z,11.04
2018-10-09T00:44:37.476Z,11.05
2018-10-09T00:44:41.845Z,11.04
2018-10-09T00:44:46.057Z,11.04
2018-10-09T00:44:50.267Z,11.04
2018-10-09T00:44:54.413Z,11.04
2018-10-09T00:44:58.514Z,11.04
2018-10-09T00:45:02.721Z,11.03
2018-10-09T00:45:06.601Z,11.03
2018-10-09T00:45:10.699Z,11.03
2018-10-09T00:45:14.894Z,11.03
2018-10-09T00:45:19.202Z,11.03
2018-10-09T00:45:23.515Z,11.03
2018-10-09T00:45:27.708Z,11.02
2018-10-09T00:45:31.800Z,11.02
2018-10-09T00:45:36.002Z,11.02
2018-10-09T00:45:40.097Z,11.02
2018-10-09T00:45:44.404Z,11.02
2018-10-09T00:45:48.390Z,11.02
2018-10-09T00:45:52.584Z,11.02
2018-10-09T00:45:56.891Z,11.02
2018-10-09T00:46:01.206Z,11.01
2018-10-09T00:46:05.191Z,11.02
2018-10-09T00:46:09.172Z,11.02
2018-10-09T00:46:13.487Z,11.02
2018-10-09T00:46:17.686Z,11.01
2018-10-09T00:46:21.991Z,11.01
2018-10-09T00:46:26.197Z,11.01
2018-10-09T00:46:30.400Z,11.01
2018-10-09T00:46:34.707Z,11.02
2018-10-09T00:46:39.015Z,11
2018-10-09T00:46:43.328Z,11.01
2018-10-09T00:46:47.316Z,11.01
2018-10-09T00:46:51.515Z,11
2018-10-09T00:46:55.820Z,11.01
2018-10-09T00:46:59.911Z,11.01
2018-10-09T00:47:04.000Z,11.01
2018-10-09T00:47:08.300Z,11
2018-10-09T00:47:12.604Z,10.99
2018-10-09T00:47:16.969Z,11
2018-10-09T00:47:21.284Z,11.01
2018-10-09T00:47:25.600Z,11.01
2018-10-09T00:47:29.905Z,10.99
2018-10-09T00:47:34.003Z,11
2018-10-09T00:47:38.312Z,11
2018-10-09T00:47:42.509Z,10.99
2018-10-09T00:47:46.832Z,10.99
2018-10-09T00:47:50.934Z,10.99
2018-10-09T00:47:55.131Z,10.99
2018-10-09T00:47:59.123Z,10.99
2018-10-09T00:48:03.321Z,10.99
2018-10-09T00:48:07.533Z,10.98
2018-10-09T00:48:11.835Z,10.99
2018-10-09T00:48:15.930Z,10.98
2018-10-09T00:48:20.275Z,10.98
2018-10-09T00:48:24.586Z,10.97
2018-10-09T00:48:28.679Z,10.97
2018-10-09T00:48:32.883Z,10.97
2018-10-09T00:48:37.085Z,10.98
2018-10-09T00:48:41.412Z,10.97
2018-10-09T00:48:45.724Z,10.97
2018-10-09T00:48:50.033Z,10.97
2018-10-09T00:48:54.346Z,10.97
2018-10-09T00:48:58.439Z,10.98
2018-10-09T00:49:02.434Z,10.97
2018-10-09T00:49:06.424Z,10.97
2018-10-09T00:49:10.732Z,10.96
2018-10-09T00:49:14.928Z,10.96
2018-10-09T00:49:19.136Z,10.96
2018-10-09T00:49:23.345Z,10.96
2018-10-09T00:49:27.541Z,10.95
2018-10-09T00:49:31.628Z,10.95
2018-10-09T00:49:35.830Z,10.95
2018-10-09T00:49:40.136Z,10.95
2018-10-09T00:49:44.332Z,10.93
2018-10-09T00:49:48.434Z,10.94
2018-10-09T00:49:52.527Z,10.93
2018-10-09T00:49:56.725Z,10.94
2018-10-09T00:50:00.924Z,10.93
2018-10-09T00:50:05.019Z,10.94
2018-10-09T00:50:09.224Z,10.93
2018-10-09T00:50:13.528Z,10.93
2018-10-09T00:50:17.841Z,10.93
2018-10-09T00:50:22.153Z,10.93
2018-10-09T00:50:26.456Z,10.93
2018-10-09T00:50:30.774Z,10.93
2018-10-09T00:50:35.086Z,10.93
2018-10-09T00:50:39.393Z,10.92
2018-10-09T00:50:43.486Z,10.92
2018-10-09T00:50:47.594Z,10.91
2018-10-09T00:50:51.901Z,10.92
2018-10-09T00:50:55.895Z,10.92
2018-10-09T00:50:59.886Z,10.91
2018-10-09T00:51:03.875Z,10.92
2018-10-09T00:51:07.966Z,10.92
2018-10-09T00:51:12.164Z,10.91
2018-10-09T00:51:16.260Z,10.91
2018-10-09T00:51:20.460Z,10.91
2018-10-09T00:51:24.670Z,10.9
2018-10-09T00:51:28.658Z,10.91
2018-10-09T00:51:32.965Z,10.9
2018-10-09T00:51:37.163Z,10.9
2018-10-09T00:51:41.471Z,10.9
2018-10-09T00:51:45.773Z,10.9
2018-10-09T00:51:50.012Z,10.89
2018-10-09T00:51:54.323Z,10.9
2018-10-09T00:51:58.520Z,10.9
2018-10-09T00:52:02.870Z,10.89
2018-10-09T00:52:07.175Z,10.89
2018-10-09T00:52:11.424Z,10.89
2018-10-09T00:52:15.622Z,10.88
2018-10-09T00:52:19.930Z,10.88
2018-10-09T00:52:24.239Z,10.89
2018-10-09T00:52:28.443Z,10.88
2018-10-09T00:52:32.535Z,10.87
2018-10-09T00:52:36.843Z,10.87
2018-10-09T00:52:41.146Z,10.87
2018-10-09T00:52:45.352Z,10.88
2018-10-09T00:52:49.663Z,10.87
2018-10-09T00:52:53.982Z,10.87
2018-10-09T00:52:58.301Z,10.87
2018-10-09T00:53:02.555Z,10.87
2018-10-09T00:53:06.752Z,10.88
2018-10-09T00:53:10.951Z,10.87
2018-10-09T00:53:15.256Z,10.86
2018-10-09T00:53:19.355Z,10.87
2018-10-09T00:53:23.663Z,10.86
2018-10-09T00:53:27.858Z,10.87
2018-10-09T00:53:32.060Z,10.86
2018-10-09T00:53:36.151Z,10.87
2018-10-09T00:53:40.362Z,10.86
2018-10-09T00:53:44.669Z,10.87
2018-10-09T00:53:48.971Z,10.86
2018-10-09T00:53:53.176Z,10.87
2018-10-09T00:53:57.365Z,10.87
2018-10-09T00:54:01.565Z,10.86
2018-10-09T00:54:05.868Z,10.86
2018-10-09T00:54:10.077Z,10.86
2018-10-09T00:54:14.277Z,10.86